createdAt,value
2017-02-15T00:06:15.024Z,33
2017-02-15T00:16:15.086Z,35
2017-02-15T00:26:15.097Z,35
2017-02-15T00:36:15.012Z,35
2017-02-15T00:46:15.063Z,36
2017-02-15T00:56:15.073Z,35
2017-02-15T01:06:15.019Z,33
2017-02-15T01:16:15.048Z,35
2017-02-15T01:26:15.151Z,30
2017-02-15T01:36:14.992Z,32
2017-02-15T01:46:15.071Z,31
2017-02-15T01:56:15.012Z,32
2017-02-15T02:06:14.994Z,33
2017-02-15T02:16:15.000Z,31
2017-02-15T02:26:14.992Z,31
2017-02-15T02:36:15.058Z,31
2017-02-15T02:46:15.028Z,30
2017-02-15T02:56:15.012Z,31
2017-02-15T03:06:15.047Z,31
2017-02-15T03:16:15.015Z,33
2017-02-15T03:26:14.935Z,29
2017-02-15T03:36:14.996Z,31
2017-02-15T03:46:14.981Z,31
2017-02-15T03:56:14.926Z,29
2017-02-15T04:06:15.026Z,33
2017-02-15T04:16:14.954Z,31
2017-02-15T04:26:14.927Z,30
2017-02-15T04:36:14.989Z,31
2017-02-15T04:46:14.979Z,32
2017-02-15T04:56:15.030Z,30
2017-02-15T05:06:14.967Z,30
2017-02-15T05:16:15.007Z,32
2017-02-15T05:26:14.990Z,31
2017-02-15T05:36:14.990Z,31
2017-02-15T05:46:14.927Z,32
2017-02-15T05:56:14.975Z,31
2017-02-15T06:06:15.987Z,30
2017-02-15T06:16:14.923Z,33
2017-02-15T06:26:14.956Z,32
2017-02-15T06:36:14.903Z,31
2017-02-15T06:46:14.867Z,32
2017-02-15T06:56:14.969Z,30
2017-02-15T07:06:14.931Z,29
2017-02-15T07:16:14.882Z,30
2017-02-15T07:26:14.970Z,32
2017-02-15T07:36:14.871Z,31
2017-02-15T07:46:15.033Z,36
2017-02-15T07:56:14.883Z,34
2017-02-15T08:06:14.886Z,35
2017-02-15T08:16:14.928Z,32
2017-02-15T08:26:14.963Z,34
2017-02-15T08:36:14.886Z,32
2017-02-15T08:46:14.957Z,34
2017-02-15T08:56:23.013Z,40
2017-02-15T09:06:15.391Z,37
2017-02-15T09:16:14.947Z,30
2017-02-15T09:26:14.905Z,37
2017-02-15T09:36:14.939Z,34
2017-02-15T09:46:15.111Z,34
2017-02-15T09:56:14.832Z,27
2017-02-15T10:06:16.073Z,27
2017-02-15T10:16:15.158Z,25
2017-02-15T10:26:14.786Z,25
2017-02-15T10:36:14.854Z,26
2017-02-15T10:46:14.816Z,25
2017-02-15T10:56:14.836Z,28
2017-02-15T11:06:15.050Z,26
2017-02-15T11:16:14.876Z,25
2017-02-15T11:26:14.823Z,25
2017-02-15T11:36:14.901Z,24
2017-02-15T11:46:14.982Z,24
2017-02-15T11:56:15.238Z,24
2017-02-15T12:06:14.798Z,23
2017-02-15T12:16:14.830Z,24
2017-02-15T12:26:14.830Z,25
2017-02-15T12:36:14.943Z,24
2017-02-15T12:46:14.835Z,25
2017-02-15T12:56:14.866Z,25
2017-02-15T13:06:14.817Z,25
2017-02-15T13:16:14.837Z,27
2017-02-15T13:26:17.064Z,24
2017-02-15T13:36:14.782Z,26
2017-02-15T13:46:15.439Z,25
2017-02-15T13:56:14.907Z,23
2017-02-15T14:06:20.507Z,23
2017-02-15T14:16:14.806Z,23
2017-02-15T14:26:14.896Z,24
2017-02-15T14:46:48.377Z,23
2017-02-15T14:56:23.486Z,28
2017-02-15T15:06:38.421Z,25
2017-02-15T15:26:58.445Z,21
2017-02-15T15:47:33.618Z,22
2017-02-15T15:56:48.864Z,24
2017-02-15T16:06:51.761Z,25
2017-02-15T16:16:49.491Z,28
2017-02-15T16:26:39.997Z,28
2017-02-15T16:37:32.183Z,28
2017-02-15T16:46:43.295Z,29
2017-02-15T16:56:51.098Z,28
2017-02-15T17:07:20.093Z,27
2017-02-15T17:17:24.538Z,28
2017-02-15T17:37:31.088Z,31
2017-02-15T17:57:32.886Z,30
2017-02-15T18:27:25.924Z,30
2017-02-15T18:36:30.600Z,31
2017-02-15T19:47:15.786Z,30
2017-02-15T20:56:56.161Z,32
2017-02-15T21:37:34.555Z,28
2017-02-15T21:46:45.604Z,28
2017-02-15T22:06:34.041Z,31
2017-02-15T22:16:40.749Z,29
2017-02-15T22:26:33.221Z,28
2017-02-15T22:36:37.457Z,26
2017-02-15T22:46:57.420Z,25
2017-02-15T22:56:16.770Z,25
2017-02-15T23:06:15.100Z,24
2017-02-15T23:16:15.251Z,23
2017-02-15T23:26:15.149Z,24
2017-02-15T23:36:15.097Z,22
2017-02-15T23:46:15.123Z,22
2017-02-15T23:56:15.182Z,24
